createdAt,value
2019-04-13T00:01:28.002Z,8.93
2019-04-13T00:03:57.370Z,8.10
2019-04-13T00:06:34.642Z,8.20
2019-04-13T00:09:06.527Z,8.68
2019-04-13T00:11:37.530Z,9.20
2019-04-13T00:14:06.902Z,10.07
2019-04-13T00:16:36.281Z,8.48
2019-04-13T00:19:05.644Z,8.73
2019-04-13T00:21:35.018Z,9.43
2019-04-13T00:24:04.394Z,9.90
2019-04-13T00:26:33.769Z,10.38
2019-04-13T00:29:03.776Z,10.55
2019-04-13T00:31:33.175Z,9.80
2019-04-13T00:34:02.584Z,10.40
2019-04-13T00:36:31.960Z,9.03
2019-04-13T00:39:01.339Z,9.95
2019-04-13T00:41:30.698Z,9.60
2019-04-13T00:44:00.076Z,10.85
2019-04-13T00:46:29.444Z,9.20
2019-04-13T00:48:58.812Z,10.73
2019-04-13T00:51:28.192Z,9.70
2019-04-13T00:53:57.550Z,10.13
2019-04-13T00:56:27.152Z,10.05
2019-04-13T00:58:56.526Z,10.30
2019-04-13T01:01:25.891Z,10.50
2019-04-13T01:03:56.486Z,10.13
2019-04-13T01:06:26.549Z,10.55
2019-04-13T01:08:56.816Z,11.08
2019-04-13T01:11:26.183Z,10.80
2019-04-13T01:13:55.551Z,11.87
2019-04-13T01:16:24.927Z,10.93
2019-04-13T01:18:56.901Z,10.13
2019-04-13T01:21:25.395Z,11.40
2019-04-13T01:24:14.122Z,11.43
2019-04-13T01:26:43.483Z,11.17
2019-04-13T01:29:12.880Z,11.83
2019-04-13T01:31:42.240Z,11.80
2019-04-13T01:34:11.619Z,11.97
2019-04-13T01:36:40.996Z,12.23
2019-04-13T01:39:10.378Z,11.63
2019-04-13T01:41:39.747Z,11.47
2019-04-13T01:44:09.121Z,11.47
2019-04-13T01:46:38.483Z,11.77
2019-04-13T01:49:07.866Z,12.50
2019-04-13T01:51:37.222Z,11.73
2019-04-13T01:54:06.938Z,12.13
2019-04-13T01:56:36.296Z,11.33
2019-04-13T01:59:05.784Z,11.48
2019-04-13T02:01:36.797Z,11.10
2019-04-13T02:04:07.810Z,12.10
2019-04-13T02:06:38.823Z,13.03
2019-04-13T02:09:19.189Z,12.17
2019-04-13T02:11:48.557Z,13.50
2019-04-13T02:14:17.931Z,14.80
2019-04-13T02:16:47.298Z,12.93
2019-04-13T02:19:16.933Z,13.27
2019-04-13T02:21:46.296Z,13.33
2019-04-13T02:24:15.692Z,13.53
2019-04-13T02:26:45.058Z,14.47
2019-04-13T02:29:14.420Z,12.77
2019-04-13T02:31:44.325Z,14.95
2019-04-13T02:34:14.335Z,16.27
2019-04-13T02:36:44.432Z,14.75
2019-04-13T02:39:14.831Z,14.83
2019-04-13T02:41:44.387Z,15.53
2019-04-13T02:44:13.760Z,14.13
2019-04-13T02:46:43.152Z,15.70
2019-04-13T02:49:12.522Z,14.63
2019-04-13T02:51:41.906Z,14.10
2019-04-13T02:54:11.282Z,14.47
2019-04-13T02:56:40.930Z,13.07
2019-04-13T02:59:10.291Z,13.37
2019-04-13T03:01:39.674Z,13.57
2019-04-13T03:04:09.407Z,14.50
2019-04-13T03:06:38.866Z,13.70
2019-04-13T03:09:08.892Z,14.13
2019-04-13T03:11:39.087Z,13.57
2019-04-13T03:14:08.441Z,14.77
2019-04-13T03:16:54.679Z,14.33
2019-04-13T03:19:25.700Z,15.20
2019-04-13T03:21:55.093Z,14.80
2019-04-13T03:24:24.480Z,11.33
2019-04-13T03:26:53.811Z,13.80
2019-04-13T03:29:23.182Z,15.50
2019-04-13T03:31:52.556Z,15.30
2019-04-13T03:34:41.595Z,13.90
2019-04-13T03:37:11.050Z,15.33
2019-04-13T03:39:40.425Z,15.93
2019-04-13T03:42:09.795Z,14.50
2019-04-13T03:44:39.162Z,14.57
2019-04-13T03:47:08.805Z,14.30
2019-04-13T03:49:38.169Z,15.47
2019-04-13T03:52:07.819Z,14.47
2019-04-13T03:54:37.188Z,14.23
2019-04-13T03:57:06.574Z,14.28
2019-04-13T03:59:35.939Z,13.95
2019-04-13T04:02:05.594Z,13.73
2019-04-13T04:04:34.958Z,15.13
2019-04-13T04:07:04.339Z,13.60
2019-04-13T04:09:33.703Z,13.93
2019-04-13T04:12:03.076Z,14.70
2019-04-13T04:14:32.447Z,14.10
2019-04-13T04:17:01.817Z,13.97
2019-04-13T04:19:31.206Z,14.00
2019-04-13T04:22:00.584Z,12.67
2019-04-13T04:24:29.963Z,14.83
2019-04-13T04:26:59.351Z,14.50
2019-04-13T04:29:28.714Z,14.57
2019-04-13T04:31:58.089Z,15.00
2019-04-13T04:34:27.465Z,14.93
2019-04-13T04:36:57.081Z,15.00
2019-04-13T04:39:26.769Z,15.07
2019-04-13T04:41:56.127Z,14.63
2019-04-13T04:44:25.775Z,13.97
2019-04-13T04:46:55.380Z,14.47
2019-04-13T04:49:24.767Z,16.00
2019-04-13T04:51:54.140Z,14.70
2019-04-13T04:54:23.754Z,14.60
2019-04-13T04:56:53.213Z,14.43
2019-04-13T04:59:22.573Z,14.87
2019-04-13T05:01:52.206Z,14.40
2019-04-13T05:04:21.591Z,14.27
2019-04-13T05:06:50.956Z,14.75
2019-04-13T05:09:20.349Z,15.10
2019-04-13T05:11:49.709Z,15.67
2019-04-13T05:14:19.468Z,16.20
2019-04-13T05:16:48.849Z,17.47
2019-04-13T05:19:18.226Z,21.50
2019-04-13T05:21:47.592Z,19.30
2019-04-13T05:24:16.978Z,15.53
2019-04-13T05:26:46.340Z,14.40
2019-04-13T05:29:15.722Z,14.37
2019-04-13T05:31:45.084Z,14.30
2019-04-13T05:34:14.455Z,13.53
2019-04-13T05:36:47.739Z,15.90
2019-04-13T05:39:14.932Z,14.63
2019-04-13T05:41:44.619Z,14.87
2019-04-13T05:44:13.984Z,15.53
2019-04-13T05:46:43.690Z,15.03
2019-04-13T05:49:13.067Z,14.13
2019-04-13T05:51:42.433Z,15.53
2019-04-13T05:54:11.825Z,15.23
2019-04-13T05:56:41.280Z,15.03
2019-04-13T05:59:10.654Z,14.80
2019-04-13T06:01:40.020Z,17.50
2019-04-13T06:04:09.400Z,16.87
2019-04-13T06:06:38.760Z,16.77
2019-04-13T06:09:08.777Z,15.27
2019-04-13T06:11:38.886Z,15.10
2019-04-13T06:14:08.251Z,13.93
2019-04-13T06:16:40.318Z,13.43
2019-04-13T06:19:08.741Z,13.80
2019-04-13T06:21:40.420Z,12.83
2019-04-13T06:24:09.493Z,13.60
2019-04-13T06:26:41.074Z,12.47
2019-04-13T06:29:09.971Z,12.50
2019-04-13T06:31:40.982Z,11.23
2019-04-13T06:34:24.230Z,12.13
2019-04-13T06:36:53.597Z,13.03
2019-04-13T06:39:22.987Z,10.90
2019-04-13T06:41:52.358Z,11.77
2019-04-13T06:44:21.733Z,12.93
2019-04-13T06:46:51.364Z,12.43
2019-04-13T06:49:23.333Z,11.97
2019-04-13T06:51:51.871Z,12.23
2019-04-13T06:54:21.308Z,12.87
2019-04-13T06:56:50.800Z,13.08
2019-04-13T06:59:20.899Z,13.58
2019-04-13T07:01:50.270Z,12.83
2019-04-13T07:04:19.647Z,12.27
2019-04-13T07:06:51.102Z,12.53
2019-04-13T07:09:26.221Z,11.80
2019-04-13T07:11:56.289Z,12.70
2019-04-13T07:14:26.268Z,12.28
2019-04-13T07:16:59.916Z,12.33
2019-04-13T07:19:29.664Z,11.85
2019-04-13T07:21:59.343Z,14.18
2019-04-13T07:24:29.460Z,12.82
2019-04-13T07:26:58.908Z,12.93
2019-04-13T07:29:28.285Z,14.17
2019-04-13T07:32:01.420Z,13.37
2019-04-13T07:34:28.773Z,13.87
2019-04-13T07:36:58.161Z,7.93
2019-04-13T07:39:27.542Z,16.77
2019-04-13T07:41:56.914Z,13.57
2019-04-13T07:44:30.430Z,13.67
2019-04-13T07:47:01.447Z,13.80
2019-04-13T07:49:41.322Z,13.53
2019-04-13T07:52:15.440Z,16.63
2019-04-13T07:54:45.396Z,15.60
2019-04-13T07:57:15.676Z,14.00
2019-04-13T07:59:45.389Z,16.40
2019-04-13T08:02:15.854Z,15.78
2019-04-13T08:04:45.399Z,14.43
2019-04-13T08:07:14.787Z,14.70
2019-04-13T08:09:44.165Z,19.30
2019-04-13T08:12:16.695Z,19.30
2019-04-13T08:14:44.737Z,18.73
2019-04-13T08:17:15.751Z,18.60
2019-04-13T08:19:46.757Z,15.67
2019-04-13T08:22:16.208Z,17.73
2019-04-13T08:24:48.328Z,17.47
2019-04-13T08:27:17.749Z,18.27
2019-04-13T08:29:47.131Z,18.77
2019-04-13T08:32:16.510Z,17.57
2019-04-13T08:34:45.882Z,14.40
2019-04-13T08:37:15.259Z,15.17
2019-04-13T08:39:44.644Z,13.80
2019-04-13T08:42:19.865Z,16.63
2019-04-13T08:44:45.120Z,15.53
2019-04-13T08:47:33.840Z,15.70
2019-04-13T08:50:03.380Z,15.18
2019-04-13T08:52:32.754Z,12.83
2019-04-13T08:55:02.119Z,14.50
2019-04-13T08:57:31.843Z,13.43
2019-04-13T09:00:01.312Z,14.85
2019-04-13T09:02:31.331Z,16.73
2019-04-13T09:05:04.288Z,15.20
2019-04-13T09:07:32.563Z,15.57
2019-04-13T09:10:02.933Z,16.57
2019-04-13T09:12:32.492Z,15.20
2019-04-13T09:15:02.169Z,15.93
2019-04-13T09:17:34.531Z,15.47
2019-04-13T09:20:07.890Z,14.30
2019-04-13T09:22:37.769Z,13.13
2019-04-13T09:25:07.262Z,15.20
2019-04-13T09:27:40.323Z,14.80
2019-04-13T09:30:07.862Z,14.87
2019-04-13T09:32:37.224Z,15.03
2019-04-13T09:35:06.675Z,14.95
2019-04-13T09:37:36.039Z,15.97
2019-04-13T09:40:07.134Z,12.73
2019-04-13T09:42:36.569Z,14.63
2019-04-13T09:45:06.823Z,12.50
2019-04-13T09:47:36.193Z,14.63
2019-04-13T09:50:06.512Z,16.83
2019-04-13T09:52:35.890Z,12.53
2019-04-13T09:55:06.376Z,12.00
2019-04-13T09:57:35.918Z,14.87
2019-04-13T10:00:07.810Z,17.40
2019-04-13T10:02:37.726Z,14.80
2019-04-13T10:05:08.119Z,13.23
2019-04-13T10:07:41.268Z,14.85
2019-04-13T10:10:12.484Z,14.23
2019-04-13T10:12:58.174Z,10.77
2019-04-13T10:15:29.560Z,14.73
2019-04-13T10:18:06.782Z,15.70
2019-04-13T10:20:36.167Z,11.80
2019-04-13T10:23:05.679Z,10.80
2019-04-13T10:25:38.178Z,13.07
2019-04-13T10:28:06.157Z,13.00
2019-04-13T10:30:35.546Z,10.05
2019-04-13T10:33:04.916Z,9.77
2019-04-13T10:35:34.654Z,9.90
2019-04-13T10:38:04.047Z,10.13
2019-04-13T10:40:33.432Z,11.20
2019-04-13T10:43:02.799Z,11.17
2019-04-13T10:45:33.827Z,14.28
2019-04-13T10:48:04.829Z,10.83
2019-04-13T10:50:41.596Z,11.10
2019-04-13T10:53:10.966Z,9.87
2019-04-13T10:55:40.341Z,11.73
2019-04-13T10:58:09.729Z,11.37
2019-04-13T11:00:39.091Z,9.00
2019-04-13T11:03:08.462Z,7.33
2019-04-13T11:05:37.825Z,7.83
2019-04-13T11:08:07.209Z,8.48
2019-04-13T11:10:36.572Z,10.90
2019-04-13T11:13:05.964Z,10.47
2019-04-13T11:15:35.719Z,11.03
2019-04-13T11:18:05.167Z,11.40
2019-04-13T11:20:34.543Z,14.37
2019-04-13T11:23:04.240Z,13.33
2019-04-13T11:25:33.965Z,15.73
2019-04-13T11:28:07.367Z,16.93
2019-04-13T11:30:34.797Z,14.20
2019-04-13T11:33:04.180Z,15.50
2019-04-13T11:35:35.705Z,13.80
2019-04-13T11:38:04.744Z,12.70
2019-04-13T11:40:34.095Z,10.50
2019-04-13T11:43:05.357Z,7.77
2019-04-13T11:45:52.293Z,6.25
2019-04-13T11:48:28.728Z,7.47
2019-04-13T11:51:02.979Z,5.47
2019-04-13T11:53:32.352Z,5.03
2019-04-13T11:56:02.370Z,6.00
2019-04-13T11:58:33.139Z,7.07
2019-04-13T12:01:06.524Z,6.37
2019-04-13T12:03:53.479Z,5.12
2019-04-13T12:06:40.600Z,6.83
2019-04-13T12:09:14.428Z,7.60
2019-04-13T12:11:54.933Z,7.07
2019-04-13T12:14:24.138Z,6.20
2019-04-13T12:16:58.382Z,6.50
2019-04-13T12:19:29.388Z,8.27
2019-04-13T12:22:10.199Z,8.45
2019-04-13T12:24:39.586Z,9.25
2019-04-13T12:27:09.025Z,10.23
2019-04-13T12:29:39.150Z,9.80
2019-04-13T12:32:10.998Z,9.67
2019-04-13T12:34:40.623Z,10.47
2019-04-13T12:37:10.015Z,9.70
2019-04-13T12:39:40.254Z,8.27
2019-04-13T12:42:09.956Z,8.20
2019-04-13T12:44:39.365Z,8.13
2019-04-13T12:47:10.442Z,9.07
2019-04-13T12:49:39.805Z,8.13
2019-04-13T12:52:09.185Z,9.18
2019-04-13T12:54:38.624Z,8.40
2019-04-13T12:57:07.997Z,8.10
2019-04-13T12:59:37.665Z,8.30
2019-04-13T13:02:08.738Z,9.40
2019-04-13T13:04:42.173Z,9.50
2019-04-13T13:07:11.534Z,7.93
2019-04-13T13:09:42.434Z,12.73
2019-04-13T13:12:14.560Z,13.37
2019-04-13T13:14:43.979Z,11.70
2019-04-13T13:17:13.354Z,12.53
2019-04-13T13:19:45.249Z,12.77
2019-04-13T13:22:15.905Z,13.25
2019-04-13T13:24:45.006Z,11.12
2019-04-13T13:27:14.376Z,12.03
2019-04-13T13:29:44.009Z,11.23
2019-04-13T13:32:15.408Z,9.03
2019-04-13T13:34:44.506Z,8.40
2019-04-13T13:37:13.879Z,8.63
2019-04-13T13:39:45.010Z,7.50
2019-04-13T13:42:14.435Z,8.90
2019-04-13T13:44:43.800Z,8.70
2019-04-13T13:47:13.178Z,9.35
2019-04-13T13:49:42.559Z,8.93
2019-04-13T13:52:12.351Z,8.63
2019-04-13T13:54:41.715Z,9.20
2019-04-13T13:57:11.094Z,7.97
2019-04-13T13:59:40.467Z,9.45
2019-04-13T14:02:13.150Z,7.53
2019-04-13T14:04:42.646Z,9.80
2019-04-13T14:07:12.026Z,9.70
2019-04-13T14:09:43.037Z,9.63
2019-04-13T14:12:12.436Z,9.78
2019-04-13T14:14:41.973Z,9.28
2019-04-13T14:17:11.363Z,9.63
2019-04-13T14:19:40.725Z,9.50
2019-04-13T14:22:10.385Z,9.77
2019-04-13T14:24:39.763Z,9.33
2019-04-13T14:27:09.146Z,9.05
2019-04-13T14:29:38.502Z,8.57
2019-04-13T14:32:07.890Z,8.00
2019-04-13T14:34:37.251Z,8.65
2019-04-13T14:37:06.621Z,8.33
2019-04-13T14:39:35.985Z,8.40
2019-04-13T14:42:05.529Z,6.93
2019-04-13T14:44:34.910Z,5.23
2019-04-13T14:47:04.460Z,6.80
2019-04-13T14:49:33.928Z,7.77
2019-04-13T14:52:03.601Z,7.50
2019-04-13T14:54:32.967Z,8.00
2019-04-13T14:57:04.721Z,8.28
2019-04-13T14:59:33.520Z,8.20
2019-04-13T15:02:02.877Z,7.87
2019-04-13T15:04:32.248Z,8.25
2019-04-13T15:07:01.621Z,7.03
2019-04-13T15:09:30.997Z,6.80
2019-04-13T15:12:00.369Z,5.60
2019-04-13T15:14:31.067Z,7.47
2019-04-13T15:17:04.512Z,7.03
2019-04-13T15:19:40.781Z,6.17
2019-04-13T15:22:03.626Z,6.15
2019-04-13T15:24:33.088Z,7.40
2019-04-13T15:27:07.333Z,7.30
2019-04-13T15:29:36.462Z,7.07
2019-04-13T15:32:06.414Z,6.63
2019-04-13T15:34:38.921Z,7.90
2019-04-13T15:37:09.818Z,8.68
2019-04-13T15:39:42.742Z,7.73
2019-04-13T15:42:15.709Z,10.17
2019-04-13T15:44:40.999Z,10.03
2019-04-13T15:47:15.150Z,10.30
2019-04-13T15:49:42.447Z,10.83
2019-04-13T15:52:12.231Z,10.77
2019-04-13T15:54:41.616Z,10.38
2019-04-13T15:57:11.983Z,10.53
2019-04-13T15:59:42.068Z,9.40
2019-04-13T16:02:12.210Z,9.43
2019-04-13T16:04:44.443Z,10.53
2019-04-13T16:07:13.816Z,10.13
2019-04-13T16:10:00.065Z,10.30
2019-04-13T16:12:31.969Z,9.90
2019-04-13T16:15:01.472Z,10.87
2019-04-13T16:17:31.682Z,10.30
2019-04-13T16:20:01.382Z,11.90
2019-04-13T16:22:31.910Z,9.90
2019-04-13T16:25:01.404Z,10.20
2019-04-13T16:27:33.827Z,9.87
2019-04-13T16:30:06.476Z,10.72
2019-04-13T16:32:38.339Z,9.53
2019-04-13T16:35:22.217Z,9.95
2019-04-13T16:37:52.700Z,9.57
2019-04-13T16:40:22.812Z,10.07
2019-04-13T16:42:52.935Z,9.07
2019-04-13T16:45:42.569Z,8.53
2019-04-13T16:48:29.500Z,9.53
2019-04-13T16:51:21.473Z,8.97
2019-04-13T16:54:00.127Z,8.50
2019-04-13T16:56:29.839Z,8.40
2019-04-13T16:59:07.323Z,7.90
2019-04-13T17:01:44.010Z,7.83
2019-04-13T17:04:31.129Z,6.03
2019-04-13T17:07:01.243Z,5.87
2019-04-13T17:09:31.434Z,4.17
2019-04-13T17:12:15.083Z,4.00
2019-04-13T17:14:32.008Z,4.47
2019-04-13T17:17:04.209Z,3.50
2019-04-13T17:19:36.360Z,4.90
2019-04-13T17:22:08.927Z,4.90
2019-04-13T17:24:40.301Z,5.00
2019-04-13T17:27:23.686Z,5.97
2019-04-13T17:30:04.351Z,6.57
2019-04-13T17:32:43.233Z,5.20
2019-04-13T17:35:15.621Z,5.63
2019-04-13T17:37:46.188Z,5.60
2019-04-13T17:40:17.676Z,6.50
2019-04-13T17:43:04.109Z,7.00
2019-04-13T17:45:35.192Z,7.03
2019-04-13T17:48:10.439Z,6.45
2019-04-13T17:50:58.203Z,6.72
2019-04-13T17:53:45.220Z,5.63
2019-04-13T17:56:17.621Z,6.67
2019-04-13T17:58:48.704Z,6.35
2019-04-13T18:01:35.546Z,6.45
2019-04-13T18:04:23.105Z,5.83
2019-04-13T18:06:56.995Z,5.83
2019-04-13T18:09:28.671Z,6.13
2019-04-13T18:12:05.789Z,5.47
2019-04-13T18:14:38.135Z,6.40
2019-04-13T18:17:09.498Z,6.20
2019-04-13T18:19:39.898Z,5.70
2019-04-13T18:22:10.054Z,5.13
2019-04-13T18:24:40.599Z,6.17
2019-04-13T18:27:10.915Z,5.53
2019-04-13T18:29:40.672Z,4.78
2019-04-13T18:32:10.936Z,6.27
2019-04-13T18:34:41.142Z,5.83
2019-04-13T18:37:11.624Z,6.23
2019-04-13T18:39:41.973Z,5.90
2019-04-13T18:42:11.529Z,5.83
2019-04-13T18:44:40.928Z,6.45
2019-04-13T18:47:11.243Z,6.55
2019-04-13T18:49:41.637Z,7.27
2019-04-13T18:52:11.532Z,9.27
2019-04-13T18:54:41.243Z,10.30
2019-04-13T18:57:11.184Z,10.10
2019-04-13T18:59:40.686Z,9.73
2019-04-13T19:02:10.364Z,10.93
2019-04-13T19:04:39.826Z,11.77
2019-04-13T19:07:09.264Z,11.43
2019-04-13T19:09:38.647Z,11.70
2019-04-13T19:12:08.023Z,11.13
2019-04-13T19:14:37.403Z,12.43
2019-04-13T19:17:06.777Z,12.47
2019-04-13T19:19:36.489Z,12.17
2019-04-13T19:22:06.186Z,13.30
2019-04-13T19:24:36.536Z,13.00
2019-04-13T19:27:06.453Z,13.43
2019-04-13T19:29:36.249Z,13.08
2019-04-13T19:32:06.580Z,14.03
2019-04-13T19:34:36.244Z,14.78
2019-04-13T19:37:06.273Z,13.88
2019-04-13T19:39:36.997Z,13.95
2019-04-13T19:42:06.451Z,14.47
2019-04-13T19:44:36.280Z,13.88
2019-04-13T19:47:06.504Z,14.10
2019-04-13T19:49:36.281Z,14.70
2019-04-13T19:52:11.515Z,14.15
2019-04-13T19:54:40.885Z,11.73
2019-04-13T19:57:10.274Z,12.98
2019-04-13T19:59:40.038Z,13.50
2019-04-13T20:02:09.651Z,13.70
2019-04-13T20:04:39.022Z,13.80
2019-04-13T20:07:08.407Z,13.93
2019-04-13T20:09:37.812Z,14.03
2019-04-13T20:12:07.166Z,14.80
2019-04-13T20:14:37.362Z,14.90
2019-04-13T20:17:06.797Z,15.00
2019-04-13T20:19:36.537Z,15.23
2019-04-13T20:22:06.730Z,14.45
2019-04-13T20:24:36.560Z,15.90
2019-04-13T20:27:06.795Z,15.28
2019-04-13T20:29:36.612Z,15.78
2019-04-13T20:32:06.633Z,16.20
2019-04-13T20:34:37.692Z,16.55
2019-04-13T20:37:08.549Z,16.67
2019-04-13T20:39:42.261Z,16.40
2019-04-13T20:42:16.951Z,16.44
2019-04-13T20:44:43.027Z,15.30
2019-04-13T20:47:13.407Z,16.07
2019-04-13T20:49:42.956Z,15.90
2019-04-13T20:52:12.273Z,15.90
2019-04-13T20:54:42.778Z,15.88
2019-04-13T20:57:13.031Z,15.63
2019-04-13T20:59:43.234Z,16.60
2019-04-13T21:02:13.369Z,14.97
2019-04-13T21:04:43.765Z,16.75
2019-04-13T21:07:13.793Z,16.23
2019-04-13T21:09:43.641Z,16.40
2019-04-13T21:12:14.271Z,16.60
2019-04-13T21:14:47.231Z,15.10
2019-04-13T21:17:15.645Z,15.97
2019-04-13T21:19:45.962Z,16.57
2019-04-13T21:22:15.939Z,15.57
2019-04-13T21:24:45.912Z,15.37
2019-04-13T21:27:15.999Z,14.10
2019-04-13T21:29:46.032Z,16.43
2019-04-13T21:32:18.107Z,16.17
2019-04-13T21:34:48.313Z,17.30
2019-04-13T21:37:18.383Z,17.10
2019-04-13T21:39:48.373Z,16.50
2019-04-13T21:42:17.719Z,14.53
2019-04-13T21:44:49.508Z,17.20
2019-04-13T21:47:18.418Z,16.93
2019-04-13T21:49:49.040Z,14.87
2019-04-13T21:52:38.770Z,17.45
2019-04-13T21:55:09.700Z,17.07
2019-04-13T21:57:39.385Z,17.53
2019-04-13T22:00:16.042Z,18.40
2019-04-13T22:02:46.415Z,16.60
2019-04-13T22:05:16.079Z,19.77
2019-04-13T22:07:46.123Z,16.97
2019-04-13T22:10:15.846Z,22.30
2019-04-13T22:12:45.993Z,20.53
2019-04-13T22:15:16.054Z,21.37
2019-04-13T22:17:46.558Z,21.80
2019-04-13T22:20:16.875Z,20.27
2019-04-13T22:22:46.816Z,20.40
2019-04-13T22:25:16.717Z,21.73
2019-04-13T22:27:55.699Z,20.97
2019-04-13T22:30:19.085Z,21.63
2019-04-13T22:32:49.785Z,22.63
2019-04-13T22:35:23.820Z,20.37
2019-04-13T22:37:53.780Z,21.40
2019-04-13T22:40:23.672Z,20.13
2019-04-13T22:42:54.451Z,20.93
2019-04-13T22:45:25.424Z,23.17
2019-04-13T22:47:56.535Z,22.83
2019-04-13T22:50:33.117Z,20.73
2019-04-13T22:53:04.148Z,22.00
2019-04-13T22:55:38.823Z,21.63
2019-04-13T22:58:09.444Z,20.50
2019-04-13T23:00:52.618Z,20.37
2019-04-13T23:03:22.287Z,22.30
2019-04-13T23:05:52.431Z,20.92
2019-04-13T23:08:22.772Z,21.17
2019-04-13T23:10:52.966Z,22.00
2019-04-13T23:13:23.276Z,21.37
2019-04-13T23:15:53.472Z,18.07
2019-04-13T23:18:23.240Z,20.97
2019-04-13T23:20:53.699Z,21.87
2019-04-13T23:23:24.402Z,20.43
2019-04-13T23:25:55.054Z,18.75
2019-04-13T23:28:24.983Z,19.63
2019-04-13T23:30:55.272Z,20.07
2019-04-13T23:33:25.599Z,22.60
2019-04-13T23:35:56.182Z,20.67
2019-04-13T23:38:26.658Z,20.95
2019-04-13T23:40:57.102Z,23.17
2019-04-13T23:43:26.471Z,24.10
2019-04-13T23:45:56.062Z,22.73
2019-04-13T23:48:26.457Z,23.30
2019-04-13T23:50:56.717Z,23.03
2019-04-13T23:53:27.231Z,24.27
2019-04-13T23:55:58.300Z,23.73
2019-04-13T23:58:36.267Z,22.63
